Time;durP1;ratioP1;P1;durP2;ratioP2;P2;SDS_P1;SDS_P2;PMS_P1;PMS_P2;Temp;Humidity;BMP_temperature;BMP_pressure;BME280_temperature;BME280_humidity;BME280_pressure;Samples;Min_cycle;Max_cycle;Signal;HPM_P1;HPM_P2
2022/02/18 00:02:23;;;;;;;;;;;5.30;96.30;;;;;;5088310;28;19947;-72
2022/02/18 00:04:49;;;;;;;;;;;5.30;96.30;;;;;;5088331;28;20366;-73
2022/02/18 00:07:14;;;;;;;;;;;5.30;96.20;;;;;;5088227;28;20053;-73
2022/02/18 00:09:40;;;;;;;;;;;5.20;96.30;;;;;;5088200;28;19912;-71
2022/02/18 00:12:07;;;;;;;;;;;5.20;96.40;;;;;;5088153;28;20323;-72
2022/02/18 00:14:33;;;;;;;;;;;5.20;96.50;;;;;;5087569;28;20011;-73
2022/02/18 00:16:58;;;;;;;;;;;5.20;96.50;;;;;;5088145;28;19951;-72
2022/02/18 00:19:24;;;;;;;;;;;5.30;96.70;;;;;;5086807;28;20362;-72
2022/02/18 00:21:49;;;;;;;;;;;5.30;96.70;;;;;;5086677;28;19919;-72
2022/02/18 00:24:16;;;;;;;;;;;5.40;96.80;;;;;;5088008;28;19965;-72
2022/02/18 00:26:42;;;;;;;;;;;5.40;96.80;;;;;;5088083;28;20249;-72
2022/02/18 00:29:08;;;;;;;;;;;5.50;96.80;;;;;;5086723;28;19912;-72
2022/02/18 00:31:33;;;;;;;;;;;5.50;96.90;;;;;;5086348;28;20014;-73
2022/02/18 00:33:59;;;;;;;;;;;5.60;96.90;;;;;;5087881;28;20350;-73
2022/02/18 00:36:24;;;;;;;;;;;5.70;96.90;;;;;;5088193;28;19916;-73
2022/02/18 00:38:50;;;;;;;;;;;5.80;97.00;;;;;;5087873;28;19912;-73
2022/02/18 00:41:16;;;;;;;;;;;5.80;96.90;;;;;;5087798;28;19912;-72
2022/02/18 00:43:42;;;;;;;;;;;5.90;97.10;;;;;;5087987;28;20427;-72
2022/02/18 00:46:08;;;;;;;;;;;5.90;97.20;;;;;;5087861;28;19920;-72
2022/02/18 00:48:33;;;;;;;;;;;6.00;97.30;;;;;;5087770;28;20007;-72
2022/02/18 00:50:59;;;;;;;;;;;6.00;97.40;;;;;;5087702;28;19919;-72
2022/02/18 00:53:24;;;;;;;;;;;6.10;97.30;;;;;;5088026;28;20010;-72
2022/02/18 00:55:50;;;;;;;;;;;6.10;97.60;;;;;;5087737;28;20455;-73
2022/02/18 00:58:17;;;;;;;;;;;6.20;97.60;;;;;;5087664;28;19908;-73
2022/02/18 01:00:42;;;;;;;;;;;6.20;97.50;;;;;;5087710;28;20329;-73
2022/02/18 01:03:08;;;;;;;;;;;6.20;97.50;;;;;;5087635;28;19912;-72
2022/02/18 01:05:33;;;;;;;;;;;6.20;97.50;;;;;;5087605;28;19913;-72
2022/02/18 01:07:59;;;;;;;;;;;6.20;97.60;;;;;;5086258;28;20335;-72
2022/02/18 01:10:24;;;;;;;;;;;6.10;97.60;;;;;;5087615;28;19938;-72
2022/02/18 01:12:50;;;;;;;;;;;6.10;97.70;;;;;;5087743;28;19919;-73
2022/02/18 01:15:15;;;;;;;;;;;6.10;97.80;;;;;;5086258;28;19915;-73
2022/02/18 01:17:41;;;;;;;;;;;6.10;97.80;;;;;;5086375;28;20255;-73
2022/02/18 01:20:08;;;;;;;;;;;6.10;97.80;;;;;;5087540;28;19923;-72
2022/02/18 01:22:33;;;;;;;;;;;6.20;98.00;;;;;;5087711;28;20357;-72
2022/02/18 01:24:59;;;;;;;;;;;6.20;98.10;;;;;;5087409;28;20000;-72
2022/02/18 01:27:25;;;;;;;;;;;6.20;98.10;;;;;;5087414;28;20362;-73
2022/02/18 01:29:50;;;;;;;;;;;6.30;98.10;;;;;;5087433;28;19916;-72
2022/02/18 01:32:16;;;;;;;;;;;6.30;98.10;;;;;;5087209;28;20443;-73
2022/02/18 01:34:42;;;;;;;;;;;6.30;98.30;;;;;;5088600;28;19924;-72
2022/02/18 01:37:08;;;;;;;;;;;6.40;98.40;;;;;;5091006;28;20007;-73
2022/02/18 01:39:34;;;;;;;;;;;6.40;98.40;;;;;;5091347;28;19908;-73
2022/02/18 01:41:59;;;;;;;;;;;6.40;98.40;;;;;;5089622;28;19915;-73
2022/02/18 01:44:31;;;;;;;;;;;6.50;98.60;;;;;;5090888;28;20034;-73
2022/02/18 01:46:57;;;;;;;;;;;6.50;98.70;;;;;;5090932;28;19919;-73
2022/02/18 01:49:22;;;;;;;;;;;6.60;98.70;;;;;;5090810;28;19917;-73
2022/02/18 01:51:48;;;;;;;;;;;6.70;98.90;;;;;;5089490;28;20026;-73
2022/02/18 01:54:13;;;;;;;;;;;6.70;98.90;;;;;;5090696;28;20389;-73
2022/02/18 01:56:39;;;;;;;;;;;6.80;98.90;;;;;;5090588;28;20293;-72
2022/02/18 01:59:04;;;;;;;;;;;6.90;99.00;;;;;;5090589;28;19912;-73
2022/02/18 02:01:30;;;;;;;;;;;7.00;99.10;;;;;;5090376;28;20282;-73
2022/02/18 02:03:56;;;;;;;;;;;7.20;99.50;;;;;;5090366;28;19915;-73
2022/02/18 02:06:22;;;;;;;;;;;7.30;99.50;;;;;;5090510;28;20366;-72
2022/02/18 02:08:48;;;;;;;;;;;7.40;99.40;;;;;;5090428;28;19908;-73
2022/02/18 02:11:13;;;;;;;;;;;7.50;99.30;;;;;;5089100;28;19977;-73
2022/02/18 02:13:40;;;;;;;;;;;7.50;99.20;;;;;;5090427;28;19998;-73
2022/02/18 02:16:06;;;;;;;;;;;7.50;99.20;;;;;;5089979;28;20504;-73
2022/02/18 02:18:33;;;;;;;;;;;7.60;99.30;;;;;;5090255;28;19909;-73
2022/02/18 02:20:58;;;;;;;;;;;7.70;99.60;;;;;;5090429;28;19940;-73
2022/02/18 02:23:24;;;;;;;;;;;7.80;99.70;;;;;;5090190;28;19952;-73
2022/02/18 02:25:49;;;;;;;;;;;8.00;99.90;;;;;;5090127;28;19908;-73
2022/02/18 02:28:15;;;;;;;;;;;8.10;99.80;;;;;;5090045;28;19931;-73
2022/02/18 02:30:41;;;;;;;;;;;8.30;99.90;;;;;;5089787;28;20046;-73
2022/02/18 02:33:07;;;;;;;;;;;8.40;99.80;;;;;;5088625;28;19978;-73
2022/02/18 02:35:32;;;;;;;;;;;8.50;99.80;;;;;;5089841;28;19920;-73
2022/02/18 02:37:58;;;;;;;;;;;8.50;99.60;;;;;;5089820;28;20021;-73
2022/02/18 02:40:23;;;;;;;;;;;8.50;99.60;;;;;;5089807;28;20301;-73
2022/02/18 02:42:49;;;;;;;;;;;8.50;99.80;;;;;;5089673;28;19912;-73
2022/02/18 02:45:15;;;;;;;;;;;8.60;99.90;;;;;;5089333;28;19916;-73
2022/02/18 02:47:45;;;;;;;;;;;8.80;99.90;;;;;;5088880;28;19908;-74
2022/02/18 02:50:11;;;;;;;;;;;9.00;99.90;;;;;;5089524;28;20436;-73
2022/02/18 02:52:37;;;;;;;;;;;9.10;99.90;;;;;;5089467;28;19911;-73
2022/02/18 02:55:03;;;;;;;;;;;9.20;99.90;;;;;;5089024;28;20397;-73
2022/02/18 02:57:28;;;;;;;;;;;9.30;99.90;;;;;;5089371;28;19982;-73
2022/02/18 02:59:54;;;;;;;;;;;9.40;99.90;;;;;;5089415;28;20358;-74
2022/02/18 03:02:20;;;;;;;;;;;9.40;99.90;;;;;;5089219;28;19952;-73
2022/02/18 03:04:45;;;;;;;;;;;9.30;99.90;;;;;;5088011;28;19915;-73
2022/02/18 03:07:11;;;;;;;;;;;9.20;99.90;;;;;;5089177;28;20286;-73
2022/02/18 03:09:36;;;;;;;;;;;9.00;99.90;;;;;;5089627;28;19944;-74
2022/02/18 03:12:02;;;;;;;;;;;8.90;99.90;;;;;;5089100;28;19916;-73
2022/02/18 03:14:28;;;;;;;;;;;8.70;99.90;;;;;;5089452;28;19951;-73
2022/02/18 03:16:53;;;;;;;;;;;8.60;99.90;;;;;;5089143;28;20344;-73
2022/02/18 03:19:19;;;;;;;;;;;8.50;99.90;;;;;;5087819;28;19919;-73
2022/02/18 03:21:45;;;;;;;;;;;8.40;99.90;;;;;;5088861;28;19915;-73
2022/02/18 03:24:10;;;;;;;;;;;8.30;99.90;;;;;;5089057;28;19959;-73
2022/02/18 03:26:36;;;;;;;;;;;8.30;99.90;;;;;;5088982;28;19928;-73
2022/02/18 03:29:01;;;;;;;;;;;8.20;99.90;;;;;;5088850;28;20409;-73
2022/02/18 03:31:27;;;;;;;;;;;8.20;99.90;;;;;;5088627;28;20397;-72
2022/02/18 03:33:52;;;;;;;;;;;8.10;99.90;;;;;;5088805;28;20369;-73
2022/02/18 03:36:18;;;;;;;;;;;8.10;99.90;;;;;;5088781;28;19923;-73
2022/02/18 03:38:44;;;;;;;;;;;8.10;99.90;;;;;;5088778;28;20405;-73
2022/02/18 03:41:09;;;;;;;;;;;8.10;99.90;;;;;;5088752;28;20381;-73
2022/02/18 03:43:35;;;;;;;;;;;8.10;99.90;;;;;;5088599;28;19912;-73
2022/02/18 03:46:01;;;;;;;;;;;8.00;99.90;;;;;;5088591;28;20313;-73
2022/02/18 03:48:26;;;;;;;;;;;8.00;99.90;;;;;;5088541;28;19916;-73
2022/02/18 03:50:52;;;;;;;;;;;8.00;99.90;;;;;;5088623;28;19912;-73
2022/02/18 03:53:17;;;;;;;;;;;7.90;99.90;;;;;;5088406;28;19934;-72
2022/02/18 03:55:43;;;;;;;;;;;7.90;99.90;;;;;;5088299;28;19918;-73
2022/02/18 03:58:08;;;;;;;;;;;7.90;99.90;;;;;;5088066;28;20358;-73
2022/02/18 04:00:34;;;;;;;;;;;7.90;99.90;;;;;;5088599;28;20334;-73
2022/02/18 04:03:00;;;;;;;;;;;7.90;99.90;;;;;;5088442;28;19914;-73
2022/02/18 04:05:25;;;;;;;;;;;8.00;99.90;;;;;;5088284;28;19919;-73
2022/02/18 04:07:52;;;;;;;;;;;8.00;99.90;;;;;;5088273;28;19913;-73
2022/02/18 04:10:17;;;;;;;;;;;8.10;99.90;;;;;;5088165;28;19908;-73
2022/02/18 04:12:43;;;;;;;;;;;8.10;99.90;;;;;;5088150;28;19914;-73
2022/02/18 04:15:09;;;;;;;;;;;8.10;99.90;;;;;;5086876;28;20324;-73
2022/02/18 04:17:34;;;;;;;;;;;8.10;99.90;;;;;;5088087;28;19998;-73
2022/02/18 04:20:00;;;;;;;;;;;8.10;99.90;;;;;;5088185;28;19943;-73
2022/02/18 04:22:26;;;;;;;;;;;8.10;99.90;;;;;;5088039;28;19908;-73
2022/02/18 04:24:52;;;;;;;;;;;8.10;99.90;;;;;;5088066;28;20393;-73
2022/02/18 04:27:17;;;;;;;;;;;8.10;99.90;;;;;;5088022;28;19916;-73
2022/02/18 04:29:43;;;;;;;;;;;8.10;99.90;;;;;;5088046;28;19913;-73
2022/02/18 04:32:09;;;;;;;;;;;8.10;99.80;;;;;;5087706;28;20466;-73
2022/02/18 04:34:34;;;;;;;;;;;8.10;99.70;;;;;;5087836;28;20294;-73
2022/02/18 04:37:00;;;;;;;;;;;8.20;99.60;;;;;;5086560;28;19909;-73
2022/02/18 04:39:25;;;;;;;;;;;8.20;99.30;;;;;;5087896;28;19909;-73
2022/02/18 04:41:51;;;;;;;;;;;8.20;99.00;;;;;;5087811;28;19908;-74
2022/02/18 04:44:17;;;;;;;;;;;8.30;98.80;;;;;;5087881;28;19917;-73
2022/02/18 04:46:43;;;;;;;;;;;8.30;98.50;;;;;;5087794;28;19935;-73
2022/02/18 04:49:09;;;;;;;;;;;8.20;98.50;;;;;;5087767;28;19912;-73
2022/02/18 04:51:37;;;;;;;;;;;8.20;98.60;;;;;;5087678;28;19981;-73
2022/02/18 04:54:06;;;;;;;;;;;8.20;98.70;;;;;;5086344;28;19960;-74
2022/02/18 04:56:32;;;;;;;;;;;8.20;98.70;;;;;;5088096;28;19908;-73
2022/02/18 04:58:57;;;;;;;;;;;8.20;98.50;;;;;;5086400;28;19908;-73
2022/02/18 05:01:23;;;;;;;;;;;8.20;98.00;;;;;;5087598;28;19912;-73
2022/02/18 05:03:50;;;;;;;;;;;8.10;97.60;;;;;;5087656;28;20354;-73
2022/02/18 05:06:16;;;;;;;;;;;7.80;97.50;;;;;;5087612;28;20323;-73
2022/02/18 05:08:42;;;;;;;;;;;7.50;97.70;;;;;;5087619;28;20404;-73
2022/02/18 05:11:07;;;;;;;;;;;7.30;98.10;;;;;;5091161;28;20003;-73
2022/02/18 05:13:33;;;;;;;;;;;7.10;98.40;;;;;;5091534;28;19908;-73
2022/02/18 05:16:01;;;;;;;;;;;6.90;98.60;;;;;;5089967;28;19920;-73
2022/02/18 05:18:26;;;;;;;;;;;6.90;98.80;;;;;;5091401;28;19986;-73
2022/02/18 05:20:52;;;;;;;;;;;6.80;98.80;;;;;;5091834;28;19959;-74
2022/02/18 05:23:18;;;;;;;;;;;6.70;98.80;;;;;;5090234;28;19908;-72
2022/02/18 05:25:43;;;;;;;;;;;6.60;98.90;;;;;;5091253;28;19908;-73
2022/02/18 05:28:09;;;;;;;;;;;6.50;99.00;;;;;;5091308;28;20415;-73
2022/02/18 05:30:34;;;;;;;;;;;6.50;99.00;;;;;;5091009;28;19924;-73
2022/02/18 05:33:01;;;;;;;;;;;6.40;99.20;;;;;;5090986;28;20370;-73
2022/02/18 05:35:28;;;;;;;;;;;6.40;99.10;;;;;;5089159;28;20471;-73
2022/02/18 05:37:54;;;;;;;;;;;6.40;99.10;;;;;;5091028;28;20472;-73
2022/02/18 05:40:20;;;;;;;;;;;6.40;99.10;;;;;;5090871;28;19951;-73
2022/02/18 05:42:45;;;;;;;;;;;6.40;99.10;;;;;;5089602;28;19917;-73
2022/02/18 05:45:11;;;;;;;;;;;6.40;99.00;;;;;;5090882;28;19912;-73
2022/02/18 05:47:37;;;;;;;;;;;6.30;99.00;;;;;;5090853;28;20015;-73
2022/02/18 05:50:04;;;;;;;;;;;6.30;99.00;;;;;;5090751;28;19919;-73
2022/02/18 05:52:29;;;;;;;;;;;6.30;99.00;;;;;;5090780;28;19934;-73
2022/02/18 05:54:55;;;;;;;;;;;6.30;99.00;;;;;;5090697;28;20320;-73
2022/02/18 05:57:20;;;;;;;;;;;6.30;99.00;;;;;;5089355;28;19919;-73
2022/02/18 05:59:46;;;;;;;;;;;6.30;99.00;;;;;;5090645;28;20285;-73
2022/02/18 06:02:11;;;;;;;;;;;6.30;99.10;;;;;;5090487;28;19913;-73
2022/02/18 06:04:37;;;;;;;;;;;6.30;99.00;;;;;;5090603;28;19912;-73
2022/02/18 06:07:02;;;;;;;;;;;6.30;99.00;;;;;;5090457;28;19923;-74
2022/02/18 06:09:28;;;;;;;;;;;6.30;98.90;;;;;;5090920;28;19920;-74
2022/02/18 06:11:55;;;;;;;;;;;6.30;99.00;;;;;;5090828;28;19954;-73
2022/02/18 06:14:21;;;;;;;;;;;6.30;99.00;;;;;;5090573;28;19939;-73
2022/02/18 06:16:46;;;;;;;;;;;6.30;98.90;;;;;;5090237;28;19916;-73
2022/02/18 06:19:12;;;;;;;;;;;6.40;98.70;;;;;;5088985;28;19916;-73
2022/02/18 06:21:40;;;;;;;;;;;6.40;98.50;;;;;;5089913;28;20315;-73
2022/02/18 06:24:07;;;;;;;;;;;6.40;98.30;;;;;;5090075;28;19912;-73
2022/02/18 06:26:32;;;;;;;;;;;6.30;98.10;;;;;;5089928;28;19912;-73
2022/02/18 06:28:58;;;;;;;;;;;6.30;98.00;;;;;;5090064;28;19938;-74
2022/02/18 06:31:24;;;;;;;;;;;6.20;97.90;;;;;;5089727;28;19921;-73
2022/02/18 06:33:49;;;;;;;;;;;6.20;97.80;;;;;;5089858;28;20335;-73
2022/02/18 06:36:15;;;;;;;;;;;6.20;97.80;;;;;;5089700;28;19924;-73
2022/02/18 06:38:42;;;;;;;;;;;6.10;97.80;;;;;;5089874;28;19918;-73
2022/02/18 06:41:09;;;;;;;;;;;6.10;97.80;;;;;;5089698;28;20374;-73
2022/02/18 06:43:34;;;;;;;;;;;6.10;97.90;;;;;;5089745;28;20316;-73
2022/02/18 06:46:00;;;;;;;;;;;6.10;97.90;;;;;;5089816;28;19912;-73
2022/02/18 06:48:25;;;;;;;;;;;6.00;98.00;;;;;;5089558;28;20021;-73
2022/02/18 06:50:51;;;;;;;;;;;6.00;98.00;;;;;;5089907;28;19923;-73
2022/02/18 06:53:16;;;;;;;;;;;6.00;98.00;;;;;;5089433;28;20343;-72
2022/02/18 06:55:42;;;;;;;;;;;6.00;97.90;;;;;;5089338;28;20040;-73
2022/02/18 06:58:09;;;;;;;;;;;6.00;97.90;;;;;;5089208;28;19912;-73
2022/02/18 07:00:35;;;;;;;;;;;6.00;97.80;;;;;;5089373;28;19912;-73
2022/02/18 07:03:02;;;;;;;;;;;5.90;97.90;;;;;;5089183;28;19965;-73
2022/02/18 07:05:28;;;;;;;;;;;5.90;98.00;;;;;;5089292;28;19919;-73
2022/02/18 07:07:53;;;;;;;;;;;5.90;98.00;;;;;;5089064;28;19912;-73
2022/02/18 07:10:19;;;;;;;;;;;6.00;98.10;;;;;;5088922;28;19919;-73
2022/02/18 07:12:44;;;;;;;;;;;6.00;98.10;;;;;;5089148;28;20361;-73
2022/02/18 07:15:10;;;;;;;;;;;6.10;98.10;;;;;;5088965;28;19990;-73
2022/02/18 07:17:36;;;;;;;;;;;6.10;98.00;;;;;;5087843;28;19938;-73
2022/02/18 07:20:03;;;;;;;;;;;6.00;97.90;;;;;;5088865;28;19958;-73
2022/02/18 07:22:28;;;;;;;;;;;6.00;97.90;;;;;;5088626;28;19908;-72
2022/02/18 07:24:54;;;;;;;;;;;6.00;97.90;;;;;;5088691;28;19954;-73
2022/02/18 07:27:20;;;;;;;;;;;5.90;98.20;;;;;;5088681;28;19983;-73
2022/02/18 07:29:46;;;;;;;;;;;5.90;98.00;;;;;;5088458;28;20003;-73
2022/02/18 07:32:13;;;;;;;;;;;5.90;98.00;;;;;;5087656;28;19924;-73
2022/02/18 07:34:38;;;;;;;;;;;5.90;98.00;;;;;;5088308;28;19920;-73
2022/02/18 07:37:04;;;;;;;;;;;5.90;98.10;;;;;;5088422;28;20154;-73
2022/02/18 07:39:30;;;;;;;;;;;6.00;98.20;;;;;;5088552;28;20243;-73
2022/02/18 07:41:56;;;;;;;;;;;6.00;98.20;;;;;;5087468;28;20103;-73
2022/02/18 07:44:21;;;;;;;;;;;6.00;98.10;;;;;;5088602;28;20277;-73
2022/02/18 07:46:48;;;;;;;;;;;6.00;98.00;;;;;;5088213;28;19939;-73
2022/02/18 07:49:14;;;;;;;;;;;6.00;98.20;;;;;;5088342;28;19923;-73
2022/02/18 07:51:40;;;;;;;;;;;6.00;98.00;;;;;;5088267;28;19908;-73
2022/02/18 07:54:06;;;;;;;;;;;6.00;98.10;;;;;;5087865;28;19918;-73
2022/02/18 07:56:32;;;;;;;;;;;6.10;98.20;;;;;;5088238;28;19908;-73
2022/02/18 07:58:58;;;;;;;;;;;6.20;98.20;;;;;;5087782;28;20007;-73
2022/02/18 08:01:23;;;;;;;;;;;6.30;98.10;;;;;;5086663;28;19939;-73
2022/02/18 08:03:51;;;;;;;;;;;6.30;98.10;;;;;;5088148;28;19913;-73
2022/02/18 08:06:17;;;;;;;;;;;6.30;98.00;;;;;;5088063;28;19921;-73
2022/02/18 08:08:43;;;;;;;;;;;6.40;98.00;;;;;;5087877;28;20281;-73
2022/02/18 08:11:09;;;;;;;;;;;6.40;98.00;;;;;;5087798;28;19915;-73
2022/02/18 08:13:35;;;;;;;;;;;6.40;98.00;;;;;;5087889;28;20255;-74
2022/02/18 08:16:01;;;;;;;;;;;6.40;98.00;;;;;;5088023;28;19930;-73
2022/02/18 08:18:26;;;;;;;;;;;6.40;98.00;;;;;;5087945;28;19920;-72
2022/02/18 08:20:52;;;;;;;;;;;6.50;98.00;;;;;;5086513;28;19962;-73
2022/02/18 08:23:17;;;;;;;;;;;6.40;98.00;;;;;;5087571;28;19923;-73
2022/02/18 08:25:43;;;;;;;;;;;6.40;98.10;;;;;;5087630;28;19960;-73
2022/02/18 08:28:09;;;;;;;;;;;6.50;98.20;;;;;;5087644;28;19912;-73
2022/02/18 08:30:35;;;;;;;;;;;6.60;98.40;;;;;;5087182;28;19913;-73
2022/02/18 08:33:00;;;;;;;;;;;6.80;98.50;;;;;;5086895;28;20038;-73
2022/02/18 08:35:27;;;;;;;;;;;7.00;98.60;;;;;;5086118;28;20401;-73
2022/02/18 08:37:54;;;;;;;;;;;7.30;98.70;;;;;;5088113;28;20255;-73
2022/02/18 08:40:20;;;;;;;;;;;7.60;98.60;;;;;;5087298;28;19995;-73
2022/02/18 08:42:45;;;;;;;;;;;7.80;98.50;;;;;;5085826;28;19965;-73
2022/02/18 08:45:11;;;;;;;;;;;8.00;98.30;;;;;;5091682;28;19912;-73
2022/02/18 08:47:37;;;;;;;;;;;8.10;98.10;;;;;;5091477;28;19916;-74
2022/02/18 08:50:04;;;;;;;;;;;8.10;97.90;;;;;;5091403;28;19927;-73
2022/02/18 08:52:29;;;;;;;;;;;8.10;97.90;;;;;;5091170;28;19920;-73
2022/02/18 08:54:55;;;;;;;;;;;8.10;97.80;;;;;;5090314;28;19921;-72
2022/02/18 08:57:20;;;;;;;;;;;8.10;97.70;;;;;;5090271;28;19944;-73
2022/02/18 08:59:46;;;;;;;;;;;8.00;97.70;;;;;;5089968;28;19938;-73
2022/02/18 09:02:13;;;;;;;;;;;7.90;97.70;;;;;;5090031;28;19992;-74
2022/02/18 09:04:39;;;;;;;;;;;7.80;97.70;;;;;;5090212;28;20393;-73
2022/02/18 09:07:04;;;;;;;;;;;7.70;97.60;;;;;;5090453;28;20031;-74
2022/02/18 09:09:30;;;;;;;;;;;7.50;97.50;;;;;;5090516;28;20400;-73
2022/02/18 09:11:56;;;;;;;;;;;7.40;97.50;;;;;;5089343;28;20010;-73
2022/02/18 09:14:21;;;;;;;;;;;7.30;97.60;;;;;;5089072;28;19982;-72
2022/02/18 09:16:47;;;;;;;;;;;7.10;97.40;;;;;;5090555;28;19978;-74
2022/02/18 09:19:13;;;;;;;;;;;7.00;97.50;;;;;;5089338;28;19955;-74
2022/02/18 09:21:38;;;;;;;;;;;6.80;97.20;;;;;;5090478;28;19915;-73
2022/02/18 09:24:04;;;;;;;;;;;6.60;97.20;;;;;;5090562;28;20022;-73
2022/02/18 09:26:30;;;;;;;;;;;6.40;97.30;;;;;;5087769;28;20481;-73
2022/02/18 09:28:56;;;;;;;;;;;6.30;97.70;;;;;;5090387;28;20367;-73
2022/02/18 09:31:22;;;;;;;;;;;6.20;97.70;;;;;;5089768;28;19916;-72
2022/02/18 09:33:50;;;;;;;;;;;6.20;97.80;;;;;;5090536;28;19915;-73
2022/02/18 09:36:16;;;;;;;;;;;6.20;97.80;;;;;;5090327;28;19920;-73
2022/02/18 09:38:42;;;;;;;;;;;6.20;97.80;;;;;;5089989;28;19924;-73
2022/02/18 09:41:08;;;;;;;;;;;6.10;97.80;;;;;;5089923;28;19908;-73
2022/02/18 09:43:35;;;;;;;;;;;6.10;97.60;;;;;;5088438;28;20366;-73
2022/02/18 09:46:01;;;;;;;;;;;6.10;97.50;;;;;;5090107;28;20528;-73
2022/02/18 09:48:27;;;;;;;;;;;6.10;97.50;;;;;;5090141;28;20254;-73
2022/02/18 09:50:53;;;;;;;;;;;6.00;97.50;;;;;;5090228;28;20002;-73
2022/02/18 09:53:20;;;;;;;;;;;6.00;97.60;;;;;;5088693;28;20430;-72
2022/02/18 09:55:46;;;;;;;;;;;6.00;97.60;;;;;;5089747;28;19929;-73
2022/02/18 09:58:12;;;;;;;;;;;6.10;97.50;;;;;;5089968;28;19912;-73
2022/02/18 10:00:38;;;;;;;;;;;6.00;97.50;;;;;;5089866;28;19924;-73
2022/02/18 10:03:06;;;;;;;;;;;6.00;97.60;;;;;;5089943;28;19908;-73
2022/02/18 10:05:31;;;;;;;;;;;6.00;97.60;;;;;;5089933;28;19909;-72
2022/02/18 10:08:06;;;;;;;;;;;6.00;97.60;;;;;;5090158;28;19913;-72
2022/02/18 10:10:32;;;;;;;;;;;5.90;97.60;;;;;;5089574;28;20381;-73
2022/02/18 10:12:58;;;;;;;;;;;5.90;97.70;;;;;;5089870;28;20490;-72
2022/02/18 10:15:23;;;;;;;;;;;5.80;97.90;;;;;;5090310;28;20065;-73
2022/02/18 10:17:49;;;;;;;;;;;5.80;98.10;;;;;;5090939;28;20006;-74
2022/02/18 10:20:16;;;;;;;;;;;5.80;98.00;;;;;;5089265;28;19919;-73
2022/02/18 10:23:02;;;;;;;;;;;5.80;97.90;;;;;;5089244;28;19908;-73
2022/02/18 10:25:29;;;;;;;;;;;5.80;98.00;;;;;;5090909;28;19912;-73
2022/02/18 10:27:55;;;;;;;;;;;5.80;98.00;;;;;;5090549;28;20369;-73
2022/02/18 10:30:25;;;;;;;;;;;5.70;97.90;;;;;;5091144;28;19915;-73
2022/02/18 10:33:00;;;;;;;;;;;5.60;98.00;;;;;;5089688;28;19916;-73
2022/02/18 10:35:33;;;;;;;;;;;5.60;98.10;;;;;;5087807;28;20419;-73
2022/02/18 10:37:59;;;;;;;;;;;5.60;98.00;;;;;;5089653;28;19916;-73
2022/02/18 10:40:24;;;;;;;;;;;5.60;98.10;;;;;;5090271;28;19991;-73
2022/02/18 10:42:51;;;;;;;;;;;5.60;98.30;;;;;;5088995;28;19920;-73
2022/02/18 10:45:20;;;;;;;;;;;5.50;98.20;;;;;;5088285;28;20187;-73
2022/02/18 10:47:48;;;;;;;;;;;5.50;98.30;;;;;;5083727;28;20290;-74
2022/02/18 10:50:16;;;;;;;;;;;5.40;98.30;;;;;;5071224;28;20278;-73
2022/02/18 10:52:42;;;;;;;;;;;5.40;98.40;;;;;;5088487;28;19955;-73
2022/02/18 10:55:08;;;;;;;;;;;5.40;98.60;;;;;;5089343;28;20433;-73
2022/02/18 10:57:34;;;;;;;;;;;5.40;98.60;;;;;;5089738;28;19908;-72
2022/02/18 11:00:10;;;;;;;;;;;5.40;98.60;;;;;;5090082;28;19912;-74
2022/02/18 11:02:40;;;;;;;;;;;5.50;98.40;;;;;;5088207;28;19908;-72
2022/02/18 11:05:21;;;;;;;;;;;5.50;98.50;;;;;;5090308;28;20357;-74
2022/02/18 11:07:46;;;;;;;;;;;5.60;98.50;;;;;;5079892;28;20289;-73
2022/02/18 11:10:28;;;;;;;;;;;5.70;98.30;;;;;;5088815;28;19908;-75
2022/02/18 11:12:55;;;;;;;;;;;5.70;98.30;;;;;;5088275;28;19943;-75
2022/02/18 11:15:21;;;;;;;;;;;5.80;98.10;;;;;;5090593;28;19938;-75
2022/02/18 11:17:47;;;;;;;;;;;5.90;98.10;;;;;;5090375;28;20010;-75
2022/02/18 11:20:13;;;;;;;;;;;6.00;98.10;;;;;;5090334;28;19958;-76
2022/02/18 11:22:39;;;;;;;;;;;6.10;98.10;;;;;;5090546;28;19943;-74
2022/02/18 11:25:05;;;;;;;;;;;6.20;98.00;;;;;;5090456;28;19912;-75
2022/02/18 11:27:30;;;;;;;;;;;6.20;98.00;;;;;;5089830;28;19912;-75
2022/02/18 11:29:56;;;;;;;;;;;6.30;97.60;;;;;;5089431;28;19916;-73
2022/02/18 11:32:23;;;;;;;;;;;6.20;97.60;;;;;;5089348;28;20686;-74
2022/02/18 11:35:08;;;;;;;;;;;6.10;97.60;;;;;;5089057;28;19974;-71
2022/02/18 11:37:42;;;;;;;;;;;6.10;97.70;;;;;;5087789;28;19935;-76
2022/02/18 11:40:28;;;;;;;;;;;5.90;97.70;;;;;;5090315;28;19908;-75
2022/02/18 11:43:14;;;;;;;;;;;5.80;97.70;;;;;;5078121;28;19908;-75
2022/02/18 11:45:40;;;;;;;;;;;5.70;98.00;;;;;;5077945;28;19908;-70
2022/02/18 11:48:06;;;;;;;;;;;5.70;98.10;;;;;;5089736;28;19924;-73
2022/02/18 11:50:32;;;;;;;;;;;5.70;98.30;;;;;;5085890;28;19908;-74
2022/02/18 11:52:58;;;;;;;;;;;5.70;98.50;;;;;;5087502;28;19915;-74
2022/02/18 11:55:27;;;;;;;;;;;5.80;98.40;;;;;;5087752;28;20023;-73
2022/02/18 11:57:54;;;;;;;;;;;5.90;98.50;;;;;;5088887;28;19908;-74
2022/02/18 12:00:20;;;;;;;;;;;6.10;98.60;;;;;;5088840;28;20307;-73
2022/02/18 12:02:48;;;;;;;;;;;6.30;98.60;;;;;;5088431;28;20010;-74
2022/02/18 12:05:15;;;;;;;;;;;6.50;98.80;;;;;;5088425;28;19937;-74
2022/02/18 12:07:41;;;;;;;;;;;6.70;98.40;;;;;;5088827;28;19915;-75
2022/02/18 12:10:07;;;;;;;;;;;6.90;98.20;;;;;;5089125;28;19916;-74
2022/02/18 12:12:43;;;;;;;;;;;7.10;98.20;;;;;;5087332;28;19912;-75
2022/02/18 12:15:11;;;;;;;;;;;7.30;98.10;;;;;;5086474;28;19920;-74
2022/02/18 12:17:38;;;;;;;;;;;7.40;97.50;;;;;;5087897;28;20296;-74
2022/02/18 12:20:30;;;;;;;;;;;7.40;97.10;;;;;;5088085;28;19965;-73
2022/02/18 12:22:56;;;;;;;;;;;7.50;97.20;;;;;;5083233;28;20367;-74
2022/02/18 12:25:21;;;;;;;;;;;7.70;97.20;;;;;;5088400;28;19908;-73
2022/02/18 12:27:47;;;;;;;;;;;8.00;97.00;;;;;;5088104;28;19916;-74
2022/02/18 12:30:22;;;;;;;;;;;8.40;96.80;;;;;;5086715;28;20296;-71
2022/02/18 12:32:52;;;;;;;;;;;8.90;96.70;;;;;;5085818;28;20286;-75
2022/02/18 12:35:24;;;;;;;;;;;9.60;96.80;;;;;;5086757;28;20021;-74
2022/02/18 12:37:49;;;;;;;;;;;10.20;95.60;;;;;;5085335;28;19976;-75
2022/02/18 12:40:16;;;;;;;;;;;10.70;94.30;;;;;;5088408;28;20002;-74
2022/02/18 12:42:42;;;;;;;;;;;10.90;93.20;;;;;;5087874;28;19908;-73
2022/02/18 12:45:10;;;;;;;;;;;11.10;92.10;;;;;;5086923;28;20292;-73
2022/02/18 12:47:36;;;;;;;;;;;11.00;91.00;;;;;;5088064;28;19986;-73
2022/02/18 12:50:12;;;;;;;;;;;10.90;90.90;;;;;;5088083;28;20057;-72
2022/02/18 12:52:38;;;;;;;;;;;10.80;89.60;;;;;;5087996;28;19993;-73
2022/02/18 12:55:11;;;;;;;;;;;10.50;87.70;;;;;;5087570;28;19920;-72
2022/02/18 12:57:38;;;;;;;;;;;10.30;88.90;;;;;;5087759;28;19981;-72
2022/02/18 13:00:07;;;;;;;;;;;10.40;90.00;;;;;;5087436;28;19995;-75
2022/02/18 13:02:35;;;;;;;;;;;10.30;89.60;;;;;;5087612;28;19955;-73
2022/02/18 13:05:28;;;;;;;;;;;10.10;88.70;;;;;;5086785;28;19931;-72
2022/02/18 13:07:58;;;;;;;;;;;9.90;88.80;;;;;;5087869;28;19919;-71
2022/02/18 13:10:32;;;;;;;;;;;10.10;90.50;;;;;;5083276;28;19920;-74
2022/02/18 13:12:59;;;;;;;;;;;10.50;90.40;;;;;;5082088;28;19908;-71
2022/02/18 13:15:26;;;;;;;;;;;10.90;90.00;;;;;;5086006;28;19969;-72
2022/02/18 13:17:54;;;;;;;;;;;11.10;87.90;;;;;;5087338;28;19922;-71
2022/02/18 13:20:55;;;;;;;;;;;11.10;86.30;;;;;;5085764;28;19912;-74
2022/02/18 13:23:25;;;;;;;;;;;11.10;84.80;;;;;;5025089;28;19944;-72
2022/02/18 13:26:01;;;;;;;;;;;10.80;83.00;;;;;;5071475;28;19916;-72
2022/02/18 13:28:28;;;;;;;;;;;10.60;82.70;;;;;;5087504;28;19916;-72
2022/02/18 13:30:55;;;;;;;;;;;10.50;82.00;;;;;;5089458;28;19909;-73
2022/02/18 13:33:21;;;;;;;;;;;10.30;81.60;;;;;;5092548;28;19912;-73
2022/02/18 13:35:53;;;;;;;;;;;10.10;81.60;;;;;;5091578;28;19927;-72
2022/02/18 13:38:21;;;;;;;;;;;9.80;82.20;;;;;;5091316;28;19973;-72
2022/02/18 13:41:02;;;;;;;;;;;9.60;82.00;;;;;;5093251;28;19938;-73
2022/02/18 13:43:35;;;;;;;;;;;9.40;82.00;;;;;;5092063;28;19916;-72
2022/02/18 13:46:01;;;;;;;;;;;9.40;81.60;;;;;;5090622;28;20003;-73
2022/02/18 13:48:27;;;;;;;;;;;9.40;81.30;;;;;;5092321;28;20437;-73
2022/02/18 13:50:53;;;;;;;;;;;9.70;81.00;;;;;;5091996;28;19930;-73
2022/02/18 13:53:19;;;;;;;;;;;9.80;81.20;;;;;;5091044;28;20258;-72
2022/02/18 13:55:45;;;;;;;;;;;10.00;80.20;;;;;;5090582;28;19920;-74
2022/02/18 13:58:21;;;;;;;;;;;10.10;80.20;;;;;;5089932;28;20243;-75
2022/02/18 14:00:47;;;;;;;;;;;10.20;79.50;;;;;;5089922;28;21381;-74
2022/02/18 14:03:15;;;;;;;;;;;10.20;78.50;;;;;;5085156;28;19995;-75
2022/02/18 14:05:41;;;;;;;;;;;10.10;78.80;;;;;;5088595;28;20315;-74
2022/02/18 14:08:11;;;;;;;;;;;10.10;79.70;;;;;;5090263;28;20011;-73
2022/02/18 14:10:40;;;;;;;;;;;10.00;79.20;;;;;;5088339;28;19916;-75
2022/02/18 14:13:05;;;;;;;;;;;10.00;80.00;;;;;;5090420;28;20385;-77
2022/02/18 14:15:34;;;;;;;;;;;10.10;81.20;;;;;;5090759;28;19912;-73
2022/02/18 14:18:07;;;;;;;;;;;10.20;81.70;;;;;;5090846;28;19908;-75
2022/02/18 14:20:32;;;;;;;;;;;10.20;80.90;;;;;;5091517;28;20554;-74
2022/02/18 14:22:58;;;;;;;;;;;10.00;77.70;;;;;;5089666;28;19916;-74
2022/02/18 14:25:31;;;;;;;;;;;9.60;76.40;;;;;;5091089;28;19912;-72
2022/02/18 14:27:57;;;;;;;;;;;9.20;76.50;;;;;;5089949;28;19920;-73